createdAt,value
2019-02-20T00:01:07.246Z,9.03
2019-02-20T00:03:36.212Z,10.13
2019-02-20T00:06:05.210Z,9.80
2019-02-20T00:08:34.240Z,10.63
2019-02-20T00:11:03.250Z,7.80
2019-02-20T00:13:32.314Z,9.70
2019-02-20T00:16:01.283Z,11.73
2019-02-20T00:18:30.314Z,9.40
2019-02-20T00:20:59.267Z,8.17
2019-02-20T00:23:28.278Z,9.53
2019-02-20T00:25:57.238Z,8.50
2019-02-20T00:28:26.260Z,9.77
2019-02-20T00:30:55.243Z,7.03
2019-02-20T00:33:24.230Z,9.13
2019-02-20T00:35:53.291Z,10.97
2019-02-20T00:38:22.265Z,9.50
2019-02-20T00:40:51.222Z,6.77
2019-02-20T00:43:20.262Z,8.70
2019-02-20T00:46:03.042Z,8.27
2019-02-20T00:48:45.658Z,7.03
2019-02-20T00:51:22.258Z,9.67
2019-02-20T00:53:55.606Z,9.60
2019-02-20T00:56:24.580Z,9.23
2019-02-20T00:58:53.568Z,8.87
2019-02-20T01:01:22.511Z,9.17
2019-02-20T01:03:51.483Z,12.67
2019-02-20T01:06:20.452Z,8.53
2019-02-20T01:08:49.429Z,8.47
2019-02-20T01:11:19.364Z,12.13
2019-02-20T01:13:48.564Z,11.07
2019-02-20T01:16:17.558Z,9.40
2019-02-20T01:18:47.086Z,11.67
2019-02-20T01:21:16.146Z,12.53
2019-02-20T01:23:45.118Z,8.53
2019-02-20T01:26:14.151Z,9.60
2019-02-20T01:28:43.115Z,9.73
2019-02-20T01:31:12.069Z,9.43
2019-02-20T01:33:41.046Z,9.67
2019-02-20T01:36:09.998Z,9.73
2019-02-20T01:38:38.966Z,8.73
2019-02-20T01:41:07.922Z,8.83
2019-02-20T01:43:36.891Z,6.17
2019-02-20T01:46:05.846Z,7.43
2019-02-20T01:48:34.827Z,7.27
2019-02-20T01:51:03.951Z,9.53
2019-02-20T01:53:32.926Z,8.60
2019-02-20T01:56:01.951Z,7.73
2019-02-20T01:58:30.924Z,9.57
2019-02-20T02:01:00.329Z,7.60
2019-02-20T02:03:29.454Z,8.80
2019-02-20T02:05:58.434Z,7.03
2019-02-20T02:08:27.419Z,7.80
2019-02-20T02:10:56.375Z,9.43
2019-02-20T02:13:25.347Z,7.60
2019-02-20T02:15:54.474Z,8.43
2019-02-20T02:18:23.435Z,6.33
2019-02-20T02:20:52.476Z,7.50
2019-02-20T02:23:21.515Z,6.07
2019-02-20T02:25:51.407Z,9.00
2019-02-20T02:28:20.387Z,9.37
2019-02-20T02:30:49.358Z,7.60
2019-02-20T02:33:18.328Z,7.53
2019-02-20T02:35:47.298Z,7.60
2019-02-20T02:38:16.250Z,7.03
2019-02-20T02:40:45.230Z,8.93
2019-02-20T02:43:14.186Z,9.30
2019-02-20T02:45:43.342Z,10.57
2019-02-20T02:48:12.314Z,8.03
2019-02-20T02:50:41.297Z,11.20
2019-02-20T02:53:10.257Z,8.13
2019-02-20T02:55:39.228Z,6.40
2019-02-20T02:58:08.260Z,11.80
2019-02-20T03:00:37.221Z,7.20
2019-02-20T03:03:06.380Z,10.03
2019-02-20T03:05:35.362Z,9.73
2019-02-20T03:08:04.376Z,10.40
2019-02-20T03:10:33.344Z,7.27
2019-02-20T03:13:02.744Z,8.90
2019-02-20T03:15:31.719Z,8.97
2019-02-20T03:18:00.692Z,9.20
2019-02-20T03:20:29.650Z,8.00
2019-02-20T03:22:58.680Z,8.03
2019-02-20T03:25:27.663Z,11.17
2019-02-20T03:27:56.622Z,9.63
2019-02-20T03:30:25.671Z,10.40
2019-02-20T03:32:54.648Z,9.63
2019-02-20T03:35:23.615Z,10.93
2019-02-20T03:37:52.579Z,8.90
2019-02-20T03:40:21.565Z,9.27
2019-02-20T03:42:50.576Z,7.97
2019-02-20T03:45:19.826Z,7.80
2019-02-20T03:47:48.791Z,14.10
2019-02-20T03:50:17.756Z,8.50
2019-02-20T03:52:46.804Z,8.47
2019-02-20T03:55:15.843Z,8.37
2019-02-20T03:57:44.795Z,8.50
2019-02-20T04:00:13.777Z,6.57
2019-02-20T04:02:42.726Z,7.87
2019-02-20T04:05:11.707Z,10.80
2019-02-20T04:07:40.668Z,8.17
2019-02-20T04:10:09.779Z,13.33
2019-02-20T04:12:38.730Z,7.80
2019-02-20T04:15:08.246Z,7.13
2019-02-20T04:17:37.199Z,9.53
2019-02-20T04:20:07.714Z,9.63
2019-02-20T04:22:36.687Z,7.07
2019-02-20T04:25:06.307Z,7.73
2019-02-20T04:27:35.326Z,10.07
2019-02-20T04:30:06.746Z,8.30
2019-02-20T04:32:35.716Z,9.07
2019-02-20T04:35:05.871Z,9.90
2019-02-20T04:37:34.836Z,7.43
2019-02-20T04:40:04.558Z,9.10
2019-02-20T04:42:33.525Z,8.57
2019-02-20T04:45:02.563Z,10.50
2019-02-20T04:47:31.521Z,9.60
2019-02-20T04:50:00.493Z,11.03
2019-02-20T04:52:29.469Z,12.97
2019-02-20T04:54:58.805Z,10.40
2019-02-20T04:57:27.763Z,7.90
2019-02-20T04:59:56.742Z,11.20
2019-02-20T05:02:25.699Z,8.43
2019-02-20T05:04:54.685Z,7.67
2019-02-20T05:07:23.660Z,12.17
2019-02-20T05:09:52.648Z,11.23
2019-02-20T05:12:21.609Z,6.93
2019-02-20T05:14:50.590Z,11.23
2019-02-20T05:17:19.553Z,11.07
2019-02-20T05:19:48.642Z,11.47
2019-02-20T05:22:17.567Z,8.73
2019-02-20T05:24:46.551Z,7.50
2019-02-20T05:27:15.519Z,9.90
2019-02-20T05:29:44.613Z,8.20
2019-02-20T05:32:13.557Z,6.80
2019-02-20T05:34:42.537Z,12.73
2019-02-20T05:37:11.524Z,10.23
2019-02-20T05:39:40.558Z,7.37
2019-02-20T05:42:09.506Z,7.87
2019-02-20T05:44:38.546Z,11.67
2019-02-20T05:47:07.503Z,9.27
2019-02-20T05:49:36.484Z,9.83
2019-02-20T05:52:05.449Z,10.40
2019-02-20T05:54:35.269Z,7.83
2019-02-20T05:57:04.399Z,13.33
2019-02-20T05:59:33.367Z,12.10
2019-02-20T06:02:02.347Z,10.20
2019-02-20T06:04:31.325Z,10.03
2019-02-20T06:07:00.316Z,15.93
2019-02-20T06:09:29.298Z,13.20
2019-02-20T06:11:58.263Z,10.53
2019-02-20T06:14:27.241Z,9.33
2019-02-20T06:16:56.211Z,9.03
2019-02-20T06:19:25.176Z,10.33
2019-02-20T06:21:54.131Z,7.93
2019-02-20T06:24:23.111Z,10.63
2019-02-20T06:26:52.088Z,10.77
2019-02-20T06:29:21.054Z,11.20
2019-02-20T06:31:50.163Z,8.93
2019-02-20T06:34:19.146Z,8.93
2019-02-20T06:36:48.127Z,10.93
2019-02-20T06:39:17.099Z,12.63
2019-02-20T06:41:46.070Z,9.20
2019-02-20T06:44:15.060Z,12.03
2019-02-20T06:46:44.114Z,10.67
2019-02-20T06:49:13.169Z,7.87
2019-02-20T06:51:42.131Z,9.73
2019-02-20T06:54:11.100Z,10.17
2019-02-20T06:56:40.111Z,12.17
2019-02-20T06:59:09.191Z,11.60
2019-02-20T07:01:38.155Z,9.67
2019-02-20T07:04:07.129Z,12.23
2019-02-20T07:06:50.374Z,9.27
2019-02-20T07:09:43.658Z,14.67
2019-02-20T07:12:30.410Z,15.67
2019-02-20T07:15:20.496Z,12.97
2019-02-20T07:18:22.497Z,9.60
2019-02-20T07:21:06.402Z,14.47
2019-02-20T07:23:56.607Z,14.27
2019-02-20T07:26:40.134Z,13.33
2019-02-20T07:29:27.285Z,10.87
2019-02-20T07:31:56.262Z,14.83
2019-02-20T07:34:25.314Z,11.87
2019-02-20T07:36:54.442Z,13.87
2019-02-20T07:39:23.426Z,12.00
2019-02-20T07:41:52.409Z,13.93
2019-02-20T07:44:21.374Z,11.50
2019-02-20T07:46:50.420Z,15.17
2019-02-20T07:49:19.494Z,17.00
2019-02-20T07:51:48.608Z,12.93
2019-02-20T07:54:17.578Z,11.07
2019-02-20T07:56:46.562Z,12.87
2019-02-20T07:59:15.627Z,11.83
2019-02-20T08:01:44.595Z,12.03
2019-02-20T08:04:13.577Z,15.73
2019-02-20T08:06:42.524Z,13.23
2019-02-20T08:09:11.506Z,12.00
2019-02-20T08:11:40.458Z,14.13
2019-02-20T08:14:09.435Z,14.73
2019-02-20T08:16:38.397Z,15.00
2019-02-20T08:19:07.379Z,12.87
2019-02-20T08:21:36.358Z,10.30
2019-02-20T08:24:05.403Z,15.57
2019-02-20T08:26:34.373Z,18.97
2019-02-20T08:29:03.332Z,24.17
2019-02-20T08:31:32.307Z,16.93
2019-02-20T08:34:01.402Z,20.23
2019-02-20T08:36:30.467Z,12.33
2019-02-20T08:38:59.434Z,15.67
2019-02-20T08:41:28.476Z,14.47
2019-02-20T08:43:57.453Z,16.03
2019-02-20T08:46:26.415Z,14.87
2019-02-20T08:48:55.391Z,19.37
2019-02-20T08:51:24.402Z,13.37
2019-02-20T08:53:53.347Z,13.90
2019-02-20T08:56:22.332Z,15.87
2019-02-20T08:58:51.345Z,15.23
2019-02-20T09:01:20.378Z,14.50
2019-02-20T09:03:49.338Z,14.83
2019-02-20T09:06:18.314Z,17.53
2019-02-20T09:08:47.306Z,12.63
2019-02-20T09:11:16.291Z,15.47
2019-02-20T09:13:45.263Z,12.00
2019-02-20T09:16:14.406Z,13.07
2019-02-20T09:18:43.496Z,14.33
2019-02-20T09:21:12.462Z,16.27
2019-02-20T09:23:41.922Z,12.37
2019-02-20T09:26:11.065Z,13.90
2019-02-20T09:28:40.053Z,13.97
2019-02-20T09:31:09.078Z,15.60
2019-02-20T09:33:38.055Z,14.57
2019-02-20T09:36:07.040Z,15.33
2019-02-20T09:38:36.122Z,17.00
2019-02-20T09:41:05.099Z,17.93
2019-02-20T09:43:34.157Z,17.57
2019-02-20T09:46:03.150Z,11.60
2019-02-20T09:48:32.156Z,17.47
2019-02-20T09:51:01.353Z,15.10
2019-02-20T09:53:30.315Z,13.83
2019-02-20T09:55:59.295Z,19.70
2019-02-20T09:58:28.266Z,16.80
2019-02-20T10:00:57.275Z,15.73
2019-02-20T10:03:26.306Z,18.20
2019-02-20T10:05:55.480Z,14.83
2019-02-20T10:08:24.519Z,16.87
2019-02-20T10:10:53.568Z,22.03
2019-02-20T10:13:22.606Z,16.90
2019-02-20T10:15:51.606Z,14.40
2019-02-20T10:18:20.604Z,16.67
2019-02-20T10:20:49.587Z,16.90
2019-02-20T10:23:18.551Z,17.23
2019-02-20T10:25:47.586Z,19.93
2019-02-20T10:28:16.546Z,16.07
2019-02-20T10:30:45.558Z,17.87
2019-02-20T10:33:14.556Z,18.87
2019-02-20T10:35:43.532Z,21.27
2019-02-20T10:38:12.507Z,18.10
2019-02-20T10:40:41.538Z,19.33
2019-02-20T10:43:10.636Z,18.37
2019-02-20T10:45:39.745Z,21.03
2019-02-20T10:48:08.726Z,17.17
2019-02-20T10:50:37.718Z,17.27
2019-02-20T10:53:06.703Z,17.30
2019-02-20T10:55:35.759Z,21.57
2019-02-20T10:58:04.801Z,18.13
2019-02-20T11:00:34.340Z,20.27
2019-02-20T11:03:03.400Z,21.37
2019-02-20T11:05:33.381Z,20.07
2019-02-20T11:08:02.511Z,19.87
2019-02-20T11:10:31.555Z,24.83
2019-02-20T11:13:00.591Z,23.77
2019-02-20T11:15:29.659Z,21.83
2019-02-20T11:17:58.635Z,21.63
2019-02-20T11:20:27.622Z,22.27
2019-02-20T11:22:56.601Z,18.20
2019-02-20T11:25:25.666Z,23.17
2019-02-20T11:27:54.644Z,21.13
2019-02-20T11:30:25.528Z,18.60
2019-02-20T11:32:54.581Z,17.60
2019-02-20T11:35:23.564Z,22.73
2019-02-20T11:37:53.742Z,20.73
2019-02-20T11:40:22.734Z,20.43
2019-02-20T11:42:51.696Z,19.13
2019-02-20T11:45:20.698Z,23.43
2019-02-20T11:47:49.762Z,15.50
2019-02-20T11:50:18.782Z,17.73
2019-02-20T11:52:47.780Z,23.00
2019-02-20T11:55:16.830Z,18.17
2019-02-20T11:57:45.907Z,19.17
2019-02-20T12:00:16.699Z,20.50
2019-02-20T12:02:45.729Z,22.73
2019-02-20T12:05:14.770Z,20.70
2019-02-20T12:07:43.771Z,21.03
2019-02-20T12:10:15.273Z,20.57
2019-02-20T12:12:44.266Z,20.40
2019-02-20T12:15:13.235Z,21.30
2019-02-20T12:17:42.215Z,19.50
2019-02-20T12:20:11.727Z,18.57
2019-02-20T12:22:40.827Z,20.20
2019-02-20T12:25:10.763Z,19.33
2019-02-20T12:27:39.739Z,21.23
2019-02-20T12:30:12.426Z,19.97
2019-02-20T12:32:41.690Z,20.47
2019-02-20T12:35:10.730Z,24.13
2019-02-20T12:37:39.731Z,23.17
2019-02-20T12:40:10.437Z,17.47
2019-02-20T12:42:39.537Z,19.77
2019-02-20T12:45:09.847Z,18.83
2019-02-20T12:47:38.879Z,23.27
2019-02-20T12:50:10.510Z,17.70
2019-02-20T12:52:39.534Z,20.70
2019-02-20T12:55:09.087Z,21.50
2019-02-20T12:57:38.155Z,18.77
2019-02-20T13:00:12.669Z,16.70
2019-02-20T13:02:41.710Z,18.43
2019-02-20T13:05:10.772Z,17.13
2019-02-20T13:07:39.770Z,21.07
2019-02-20T13:10:09.784Z,19.63
2019-02-20T13:12:39.011Z,19.23
2019-02-20T13:15:10.418Z,17.97
2019-02-20T13:17:39.398Z,15.17
2019-02-20T13:20:10.134Z,15.53
2019-02-20T13:22:39.483Z,17.67
2019-02-20T13:25:09.690Z,13.50
2019-02-20T13:27:40.157Z,13.63
2019-02-20T13:30:11.974Z,13.33
2019-02-20T13:32:40.970Z,19.53
2019-02-20T13:35:10.086Z,15.50
2019-02-20T13:37:39.078Z,14.93
2019-02-20T13:40:10.502Z,15.43
2019-02-20T13:42:39.567Z,12.90
2019-02-20T13:45:09.432Z,14.43
2019-02-20T13:47:40.294Z,17.13
2019-02-20T13:50:11.900Z,14.67
2019-02-20T13:52:41.204Z,16.70
2019-02-20T13:55:10.291Z,13.13
2019-02-20T13:57:39.322Z,13.47
2019-02-20T14:00:13.289Z,13.20
2019-02-20T14:02:42.827Z,12.93
2019-02-20T14:05:11.806Z,13.83
2019-02-20T14:07:41.241Z,17.97
2019-02-20T14:10:12.272Z,16.87
2019-02-20T14:12:41.334Z,14.60
2019-02-20T14:15:12.036Z,15.30
2019-02-20T14:17:41.188Z,12.23
2019-02-20T14:20:11.703Z,13.93
2019-02-20T14:22:41.128Z,14.63
2019-02-20T14:25:10.935Z,14.07
2019-02-20T14:27:39.922Z,13.40
2019-02-20T14:30:11.122Z,12.47
2019-02-20T14:32:40.258Z,15.33
2019-02-20T14:35:11.410Z,13.67
2019-02-20T14:37:40.745Z,10.80
2019-02-20T14:40:10.172Z,13.67
2019-02-20T14:42:39.357Z,13.57
2019-02-20T14:45:12.766Z,11.77
2019-02-20T14:47:41.758Z,11.83
2019-02-20T14:50:11.914Z,12.57
2019-02-20T14:52:41.185Z,11.87
2019-02-20T14:55:11.159Z,10.90
2019-02-20T14:57:40.223Z,13.43
2019-02-20T15:00:14.644Z,11.70
2019-02-20T15:02:43.701Z,13.37
2019-02-20T15:05:13.201Z,12.60
2019-02-20T15:07:42.197Z,11.77
2019-02-20T15:10:11.310Z,11.33
2019-02-20T15:12:40.302Z,16.40
2019-02-20T15:15:11.623Z,11.07
2019-02-20T15:17:40.691Z,11.70
2019-02-20T15:20:11.244Z,11.80
2019-02-20T15:22:40.565Z,11.37
2019-02-20T15:25:10.326Z,11.23
2019-02-20T15:27:39.399Z,11.17
2019-02-20T15:30:12.412Z,12.23
2019-02-20T15:32:41.891Z,12.07
2019-02-20T15:35:11.606Z,11.23
2019-02-20T15:37:46.136Z,11.47
2019-02-20T15:40:15.218Z,12.87
2019-02-20T15:42:44.571Z,10.67
2019-02-20T15:45:13.855Z,9.80
2019-02-20T15:47:42.852Z,12.53
2019-02-20T15:50:13.955Z,10.20
2019-02-20T15:52:43.070Z,7.60
2019-02-20T15:55:12.791Z,11.23
2019-02-20T15:57:42.059Z,10.57
2019-02-20T16:00:18.111Z,9.83
2019-02-20T16:02:47.068Z,9.17
2019-02-20T16:05:16.672Z,7.77
2019-02-20T16:07:45.659Z,10.23
2019-02-20T16:10:14.778Z,10.93
2019-02-20T16:12:43.816Z,15.20
2019-02-20T16:15:14.728Z,10.47
2019-02-20T16:17:44.880Z,9.87
2019-02-20T16:20:14.555Z,8.37
2019-02-20T16:22:43.544Z,9.03
2019-02-20T16:25:32.019Z,11.03
2019-02-20T16:28:01.080Z,13.73
2019-02-20T16:30:30.108Z,7.73
2019-02-20T16:33:00.769Z,10.90
2019-02-20T16:35:29.821Z,10.90
2019-02-20T16:37:58.876Z,9.13
2019-02-20T16:40:27.856Z,8.80
2019-02-20T16:42:56.847Z,10.90
2019-02-20T16:45:26.315Z,11.30
2019-02-20T16:47:55.887Z,12.27
2019-02-20T16:50:24.853Z,14.27
2019-02-20T16:52:53.907Z,8.57
2019-02-20T16:55:23.071Z,9.57
2019-02-20T16:57:56.633Z,9.10
2019-02-20T17:00:23.212Z,10.00
2019-02-20T17:02:52.562Z,10.60
2019-02-20T17:05:21.871Z,10.27
2019-02-20T17:07:50.994Z,12.40
2019-02-20T17:10:19.976Z,10.87
2019-02-20T17:12:49.017Z,9.13
2019-02-20T17:15:18.290Z,11.00
2019-02-20T17:17:47.915Z,12.00
2019-02-20T17:20:21.203Z,10.97
2019-02-20T17:22:50.444Z,16.17
2019-02-20T17:25:20.084Z,17.20
2019-02-20T17:27:49.058Z,18.53
2019-02-20T17:30:19.414Z,20.37
2019-02-20T17:32:48.961Z,16.80
2019-02-20T17:35:18.034Z,15.47
2019-02-20T17:37:47.132Z,12.00
2019-02-20T17:40:16.334Z,11.73
2019-02-20T17:42:45.319Z,11.43
2019-02-20T17:45:19.044Z,15.47
2019-02-20T17:47:48.450Z,10.97
2019-02-20T17:50:20.059Z,10.77
2019-02-20T17:52:49.026Z,11.33
2019-02-20T17:55:18.010Z,12.20
2019-02-20T17:57:47.051Z,12.27
2019-02-20T18:00:19.315Z,9.47
2019-02-20T18:02:48.361Z,12.73
2019-02-20T18:05:17.348Z,12.27
2019-02-20T18:07:49.911Z,9.73
2019-02-20T18:10:17.010Z,12.73
2019-02-20T18:12:45.976Z,12.70
2019-02-20T18:15:15.111Z,12.07
2019-02-20T18:17:44.089Z,12.33
2019-02-20T18:20:13.336Z,10.27
2019-02-20T18:22:43.691Z,9.90
2019-02-20T18:25:13.068Z,11.40
2019-02-20T18:27:42.200Z,15.30
2019-02-20T18:30:13.619Z,14.73
2019-02-20T18:32:42.664Z,10.50
2019-02-20T18:35:13.225Z,12.60
2019-02-20T18:37:42.523Z,14.43
2019-02-20T18:40:14.533Z,10.50
2019-02-20T18:42:43.672Z,11.83
2019-02-20T18:45:16.635Z,10.00
2019-02-20T18:47:45.802Z,13.70
2019-02-20T18:50:15.963Z,11.07
2019-02-20T18:52:45.019Z,17.53
2019-02-20T18:55:14.535Z,15.07
2019-02-20T18:57:43.541Z,19.70
2019-02-20T19:00:20.265Z,31.50
2019-02-20T19:02:49.580Z,26.57
2019-02-20T19:05:19.283Z,14.33
2019-02-20T19:07:48.422Z,18.37
2019-02-20T19:10:30.743Z,18.90
2019-02-20T19:13:05.447Z,21.70
2019-02-20T19:15:46.358Z,14.30
2019-02-20T19:18:37.882Z,16.20
2019-02-20T19:21:09.952Z,19.03
2019-02-20T19:23:54.117Z,16.03
2019-02-20T19:26:32.273Z,15.53
2019-02-20T19:29:20.724Z,16.33
2019-02-20T19:32:16.447Z,13.27
2019-02-20T19:35:18.728Z,17.23
2019-02-20T19:38:06.544Z,13.67
2019-02-20T19:40:45.629Z,18.13
2019-02-20T19:43:32.776Z,13.40
2019-02-20T19:46:32.117Z,12.00
2019-02-20T19:49:22.150Z,13.97
2019-02-20T19:51:56.974Z,11.63
2019-02-20T19:54:29.113Z,12.00
2019-02-20T19:57:01.160Z,13.33
2019-02-20T19:59:38.740Z,13.30
2019-02-20T20:02:13.387Z,13.17
2019-02-20T20:05:06.570Z,13.20
2019-02-20T20:07:53.571Z,12.60
2019-02-20T20:10:31.663Z,13.13
2019-02-20T20:13:06.760Z,13.30
2019-02-20T20:15:50.643Z,12.80
2019-02-20T20:18:37.880Z,14.73
2019-02-20T20:21:21.836Z,14.67
2019-02-20T20:24:05.609Z,15.20
2019-02-20T20:27:04.198Z,14.47
2019-02-20T20:29:51.260Z,17.37
2019-02-20T20:32:38.429Z,14.13
2019-02-20T20:35:33.336Z,13.13
2019-02-20T20:38:28.304Z,15.63
2019-02-20T20:41:12.319Z,16.07
2019-02-20T20:43:44.384Z,12.50
2019-02-20T20:46:34.523Z,12.87
2019-02-20T20:49:15.295Z,11.73
2019-02-20T20:51:59.148Z,14.03
2019-02-20T20:54:55.327Z,9.70
2019-02-20T20:57:33.243Z,12.03
2019-02-20T21:00:14.303Z,9.93
2019-02-20T21:02:46.578Z,9.33
2019-02-20T21:05:38.338Z,11.97
2019-02-20T21:08:13.124Z,17.33
2019-02-20T21:10:53.997Z,10.53
2019-02-20T21:13:34.936Z,8.03
2019-02-20T21:16:10.259Z,9.43
2019-02-20T21:18:42.380Z,7.73
2019-02-20T21:21:26.220Z,10.00
2019-02-20T21:24:13.524Z,11.20
2019-02-20T21:26:51.613Z,9.73
2019-02-20T21:29:31.975Z,9.67
2019-02-20T21:32:19.179Z,9.17
2019-02-20T21:35:11.849Z,7.33
2019-02-20T21:38:00.385Z,8.40
2019-02-20T21:40:55.010Z,6.73
2019-02-20T21:43:41.987Z,9.97
2019-02-20T21:46:37.869Z,7.17
2019-02-20T21:49:24.243Z,7.23
2019-02-20T21:52:12.716Z,10.13
2019-02-20T21:55:01.217Z,7.27
2019-02-20T21:57:33.278Z,11.70
2019-02-20T22:00:19.919Z,8.77
2019-02-20T22:02:57.450Z,8.43
2019-02-20T22:05:38.296Z,6.97
2019-02-20T22:08:12.967Z,6.10
2019-02-20T22:10:50.901Z,6.10
2019-02-20T22:13:55.802Z,7.40
2019-02-20T22:16:30.675Z,7.17
2019-02-20T22:19:05.505Z,6.47
2019-02-20T22:22:01.368Z,9.60
2019-02-20T22:24:33.405Z,9.00
2019-02-20T22:27:23.294Z,6.27
2019-02-20T22:30:07.407Z,8.03
2019-02-20T22:32:42.193Z,7.37
2019-02-20T22:35:23.246Z,7.03
2019-02-20T22:38:20.783Z,7.70
2019-02-20T22:40:55.407Z,10.07
2019-02-20T22:43:39.634Z,9.47
2019-02-20T22:46:14.358Z,7.93
2019-02-20T22:48:48.987Z,7.80
2019-02-20T22:51:23.550Z,6.47
2019-02-20T22:54:04.592Z,10.97
2019-02-20T22:56:54.918Z,11.07
2019-02-20T22:59:41.751Z,9.33
2019-02-20T23:02:25.664Z,9.80
2019-02-20T23:05:02.967Z,11.00
2019-02-20T23:07:38.035Z,10.33
2019-02-20T23:10:46.139Z,10.83
2019-02-20T23:13:20.712Z,9.83
2019-02-20T23:15:49.707Z,9.90
2019-02-20T23:18:18.677Z,10.57
2019-02-20T23:20:47.678Z,9.77
2019-02-20T23:23:16.750Z,9.87
2019-02-20T23:25:45.706Z,9.33
2019-02-20T23:28:14.674Z,9.23
2019-02-20T23:30:45.078Z,7.97
2019-02-20T23:33:14.403Z,9.83
2019-02-20T23:35:43.364Z,10.73
2019-02-20T23:38:12.715Z,9.40
2019-02-20T23:40:41.690Z,9.77
2019-02-20T23:43:10.786Z,9.43
2019-02-20T23:45:39.746Z,11.57
2019-02-20T23:48:08.731Z,10.13
2019-02-20T23:50:37.702Z,8.30
2019-02-20T23:53:06.704Z,9.30
2019-02-20T23:55:35.666Z,9.73
2019-02-20T23:58:05.178Z,8.23
